Time;durP1;ratioP1;P1;durP2;ratioP2;P2;SDS_P1;SDS_P2;PMS_P1;PMS_P2;Temp;Humidity;BMP_temperature;BMP_pressure;BME280_temperature;BME280_humidity;BME280_pressure;Samples;Min_cycle;Max_cycle;Signal;HPM_P1;HPM_P2
2023/01/20 00:00:39;;;;;;;28.77;17.00;;;10.60;99.90;;;;;;5034169;28;20037;-73
2023/01/20 00:03:07;;;;;;;14.82;7.45;;;10.50;99.90;;;;;;5027123;28;20397;-71
2023/01/20 00:05:50;;;;;;;18.05;6.55;;;10.50;99.90;;;;;;5025076;28;20444;-73
2023/01/20 00:08:17;;;;;;;8.45;5.20;;;10.40;99.90;;;;;;5032122;23;20140;-72
2023/01/20 00:10:44;;;;;;;10.25;4.55;;;10.40;99.90;;;;;;5035580;28;20107;-71
2023/01/20 00:13:12;;;;;;;10.85;5.00;;;10.50;99.90;;;;;;5032439;28;20047;-72
2023/01/20 00:15:42;;;;;;;8.48;5.07;;;10.50;99.90;;;;;;5001091;28;20049;-72
2023/01/20 00:18:14;;;;;;;10.48;4.03;;;10.50;99.90;;;;;;5012806;28;20160;-73
2023/01/20 00:20:42;;;;;;;9.60;4.70;;;10.50;99.90;;;;;;4997950;28;20041;-74
2023/01/20 00:23:15;;;;;;;12.20;4.63;;;10.40;99.90;;;;;;5008841;28;20291;-74
2023/01/20 00:25:46;;;;;;;13.57;4.53;;;10.50;99.90;;;;;;5000237;28;20046;-70
2023/01/20 00:28:19;;;;;;;9.45;4.53;;;10.60;99.90;;;;;;5014341;28;20046;-72
2023/01/20 00:30:50;;;;;;;10.05;3.90;;;10.60;99.90;;;;;;5007164;28;20104;-71
2023/01/20 00:33:17;;;;;;;8.90;4.17;;;10.60;99.90;;;;;;5008236;28;20486;-74
2023/01/20 00:35:53;;;;;;;7.32;4.00;;;10.60;99.90;;;;;;5011956;28;20296;-71
2023/01/20 00:38:23;;;;;;;7.32;3.70;;;10.70;99.90;;;;;;4996756;28;20042;-73
2023/01/20 00:41:00;;;;;;;11.13;4.70;;;10.60;99.90;;;;;;5012665;28;20392;-76
2023/01/20 00:43:31;;;;;;;11.10;4.10;;;10.50;99.90;;;;;;4993673;28;20474;-72
2023/01/20 00:45:58;;;;;;;8.95;3.67;;;10.50;99.90;;;;;;5003587;28;20042;-74
2023/01/20 00:48:28;;;;;;;8.50;3.85;;;10.50;99.90;;;;;;5015788;28;20076;-73
2023/01/20 00:50:55;;;;;;;8.25;3.60;;;10.60;99.90;;;;;;4998346;28;20034;-75
2023/01/20 00:53:25;;;;;;;6.40;4.18;;;10.70;99.90;;;;;;5012154;28;20065;-73
2023/01/20 00:55:55;;;;;;;8.70;4.57;;;10.70;99.90;;;;;;4993786;28;20042;-74
2023/01/20 00:58:24;;;;;;;10.80;3.90;;;10.80;99.90;;;;;;5012631;28;20515;-73
2023/01/20 01:00:53;;;;;;;7.32;4.35;;;10.50;99.90;;;;;;5007018;28;20378;-71
2023/01/20 01:03:22;;;;;;;10.98;4.43;;;10.40;99.90;;;;;;4991880;28;20086;-72
2023/01/20 01:05:50;;;;;;;10.75;4.07;;;10.50;99.90;;;;;;4994673;28;20120;-70
2023/01/20 01:08:18;;;;;;;10.77;4.53;;;10.50;99.90;;;;;;5017857;28;20061;-72
2023/01/20 01:10:57;;;;;;;9.75;4.72;;;10.60;99.90;;;;;;5011714;28;20069;-72
2023/01/20 01:13:27;;;;;;;7.38;4.25;;;10.60;99.90;;;;;;5003301;28;20041;-71
2023/01/20 01:15:54;;;;;;;7.57;4.22;;;10.50;99.90;;;;;;5000414;28;20056;-70
2023/01/20 01:18:27;;;;;;;10.40;4.32;;;10.60;99.90;;;;;;5015326;28;20139;-73
2023/01/20 01:20:54;;;;;;;9.70;4.05;;;10.60;99.90;;;;;;5014805;23;20640;-72
2023/01/20 01:23:26;;;;;;;5.88;3.95;;;10.50;99.90;;;;;;4995051;28;20215;-73
2023/01/20 01:25:53;;;;;;;7.30;4.80;;;10.50;99.90;;;;;;4990923;28;20042;-73
2023/01/20 01:28:21;;;;;;;9.55;4.60;;;10.40;99.90;;;;;;5013424;28;20420;-73
2023/01/20 01:30:48;;;;;;;7.95;4.90;;;10.40;99.90;;;;;;4995495;28;20592;-73
2023/01/20 01:33:18;;;;;;;8.90;4.78;;;10.60;99.90;;;;;;5011019;28;20046;-72
2023/01/20 01:36:02;;;;;;;7.03;4.20;;;10.60;99.90;;;;;;5005865;28;20378;-73
2023/01/20 01:38:30;;;;;;;8.40;4.03;;;10.60;99.90;;;;;;4994706;28;20480;-72
2023/01/20 01:41:00;;;;;;;11.32;4.32;;;10.60;99.90;;;;;;4995794;28;20075;-73
2023/01/20 01:43:33;;;;;;;10.05;4.30;;;10.50;99.90;;;;;;5000856;28;20037;-73
2023/01/20 01:46:01;;;;;;;8.02;4.40;;;10.60;99.90;;;;;;5001315;28;20046;-73
2023/01/20 01:48:41;;;;;;;7.38;4.35;;;10.60;99.90;;;;;;5011372;28;20049;-76
2023/01/20 01:51:18;;;;;;;7.80;3.78;;;10.50;99.90;;;;;;4995106;28;20678;-74
2023/01/20 01:54:00;;;;;;;5.93;4.22;;;10.50;99.90;;;;;;5025551;23;20463;-72
2023/01/20 01:56:30;;;;;;;8.65;4.00;;;10.60;99.90;;;;;;5011058;28;20041;-73
2023/01/20 01:59:04;;;;;;;6.35;4.07;;;10.70;99.90;;;;;;5008461;28;20050;-74
2023/01/20 02:01:34;;;;;;;10.02;4.38;;;10.60;99.90;;;;;;5006821;28;20046;-72
2023/01/20 02:04:13;;;;;;;7.32;4.30;;;10.50;99.90;;;;;;5039960;28;20041;-74
2023/01/20 02:07:10;;;;;;;7.35;4.10;;;10.50;99.90;;;;;;4995468;28;20050;-72
2023/01/20 02:09:39;;;;;;;8.90;3.90;;;10.50;99.90;;;;;;5002329;28;20072;-72
2023/01/20 02:12:11;;;;;;;6.80;3.78;;;10.60;99.90;;;;;;5027143;28;20102;-71
2023/01/20 02:14:47;;;;;;;7.28;3.88;;;10.50;99.90;;;;;;5000015;28;20427;-72
2023/01/20 02:17:44;;;;;;;4.38;3.25;;;10.50;99.90;;;;;;5004301;28;20440;-71
2023/01/20 02:20:33;;;;;;;9.98;3.85;;;10.50;99.90;;;;;;4990837;28;20054;-74
2023/01/20 02:23:01;;;;;;;5.75;3.92;;;10.50;99.90;;;;;;4995893;28;20132;-73
2023/01/20 02:25:37;;;;;;;7.15;3.67;;;10.50;99.90;;;;;;4997071;28;20052;-73
2023/01/20 02:28:32;;;;;;;8.35;3.90;;;10.50;99.90;;;;;;4991049;28;20049;-73
2023/01/20 02:31:28;;;;;;;8.57;3.85;;;10.40;99.90;;;;;;4984894;28;20145;-73
2023/01/20 02:34:22;;;;;;;7.10;3.97;;;10.30;99.90;;;;;;5004409;28;20057;-73
2023/01/20 02:36:59;;;;;;;6.88;3.80;;;10.30;99.90;;;;;;4974001;28;20046;-74
2023/01/20 02:39:35;;;;;;;7.72;4.00;;;10.40;99.90;;;;;;5001802;28;20038;-73
2023/01/20 02:42:18;;;;;;;7.18;4.30;;;10.40;99.90;;;;;;4991525;28;20477;-74
2023/01/20 02:45:19;;;;;;;7.20;4.25;;;10.30;99.90;;;;;;5020157;28;20038;-74
2023/01/20 02:48:12;;;;;;;6.03;4.03;;;10.30;99.90;;;;;;4987447;28;20045;-72
2023/01/20 02:51:06;;;;;;;7.43;4.10;;;10.30;99.90;;;;;;4998427;28;20049;-72
2023/01/20 02:53:44;;;;;;;6.15;4.03;;;10.10;99.90;;;;;;4980900;28;20054;-73
2023/01/20 02:56:20;;;;;;;8.68;4.38;;;10.20;99.90;;;;;;5008445;28;20433;-74
2023/01/20 02:59:10;;;;;;;12.13;6.60;;;10.20;99.90;;;;;;4998177;28;20061;-73
2023/01/20 03:01:41;;;;;;;15.77;7.75;;;10.00;99.90;;;;;;4991522;28;20052;-73
2023/01/20 03:04:13;;;;;;;15.40;7.57;;;10.00;99.90;;;;;;4994099;28;20054;-73
2023/01/20 03:06:48;;;;;;;15.50;7.93;;;10.00;99.90;;;;;;4994281;28;20394;-73
2023/01/20 03:09:20;;;;;;;17.60;7.32;;;10.10;99.90;;;;;;4999960;28;20052;-73
2023/01/20 03:11:53;;;;;;;9.90;6.25;;;10.10;99.90;;;;;;5001864;28;20489;-72
2023/01/20 03:14:23;;;;;;;14.10;7.70;;;10.10;99.90;;;;;;4998113;28;20057;-73
2023/01/20 03:16:54;;;;;;;12.40;7.38;;;10.00;99.90;;;;;;5010695;28;20057;-73
2023/01/20 03:19:22;;;;;;;16.13;6.93;;;9.90;99.90;;;;;;4998548;28;20482;-73
2023/01/20 03:21:49;;;;;;;13.00;7.38;;;9.90;99.90;;;;;;5006243;28;20131;-71
2023/01/20 03:24:16;;;;;;;11.85;7.82;;;9.80;99.90;;;;;;5005977;28;20589;-72
2023/01/20 03:26:44;;;;;;;11.43;7.03;;;9.80;99.90;;;;;;5007102;28;20057;-71
2023/01/20 03:29:11;;;;;;;14.13;7.68;;;9.80;99.90;;;;;;5024131;22;20504;-73
2023/01/20 03:31:49;;;;;;;16.52;6.88;;;9.90;99.90;;;;;;5031540;28;20045;-72
2023/01/20 03:34:23;;;;;;;10.25;6.10;;;9.70;99.90;;;;;;5005118;28;20079;-72
2023/01/20 03:36:53;;;;;;;8.95;6.07;;;9.70;99.90;;;;;;5032235;28;20486;-73
2023/01/20 03:39:22;;;;;;;10.23;5.97;;;9.80;99.90;;;;;;5041232;28;20042;-73
2023/01/20 03:42:08;;;;;;;13.68;6.22;;;9.70;99.90;;;;;;5033590;28;20103;-72
2023/01/20 03:45:00;;;;;;;9.73;5.60;;;9.80;99.90;;;;;;5033396;28;20049;-73
2023/01/20 03:47:27;;;;;;;6.45;4.45;;;9.70;99.90;;;;;;5028188;28;20063;-72
2023/01/20 03:50:30;;;;;;;6.32;3.95;;;9.70;99.90;;;;;;5023915;28;20436;-71
2023/01/20 03:53:06;;;;;;;6.82;4.00;;;9.70;99.90;;;;;;5020052;28;20045;-72
2023/01/20 03:55:54;;;;;;;5.15;3.85;;;9.70;99.90;;;;;;5013724;28;20137;-72
2023/01/20 03:58:29;;;;;;;8.57;3.42;;;9.70;99.90;;;;;;5001100;28;20060;-72
2023/01/20 04:01:02;;;;;;;4.50;3.20;;;9.60;99.90;;;;;;5015619;28;20029;-72
2023/01/20 04:03:59;;;;;;;10.07;3.85;;;9.60;99.90;;;;;;5026573;28;20045;-73
2023/01/20 04:06:32;;;;;;;4.85;3.55;;;9.80;99.90;;;;;;5024751;28;20043;-74
2023/01/20 04:09:18;;;;;;;5.15;3.88;;;9.80;99.90;;;;;;5039981;28;20068;-71
2023/01/20 04:11:53;;;;;;;8.18;3.70;;;9.80;99.90;;;;;;5036308;28;20049;-74
2023/01/20 04:14:21;;;;;;;6.68;3.80;;;9.80;99.90;;;;;;5013309;28;20058;-73
2023/01/20 04:16:57;;;;;;;5.20;3.70;;;9.70;99.90;;;;;;5013608;28;20046;-74
2023/01/20 04:19:26;;;;;;;4.72;3.63;;;9.70;99.90;;;;;;5004478;28;20046;-73
2023/01/20 04:22:14;;;;;;;4.50;3.35;;;9.70;99.90;;;;;;5047003;28;20120;-72
2023/01/20 04:25:11;;;;;;;4.85;3.30;;;9.70;99.90;;;;;;5026452;28;20480;-73
2023/01/20 04:27:38;;;;;;;3.83;3.25;;;9.70;99.90;;;;;;5000452;28;20104;-73
2023/01/20 04:30:06;;;;;;;4.35;3.40;;;9.70;99.90;;;;;;5011221;28;20075;-71
2023/01/20 04:32:34;;;;;;;4.07;3.45;;;9.70;99.90;;;;;;5024633;28;20049;-72
2023/01/20 04:35:01;;;;;;;4.53;3.60;;;9.70;99.90;;;;;;5018801;28;20092;-73
2023/01/20 04:37:33;;;;;;;8.57;4.60;;;9.20;99.90;;;;;;5033058;28;20092;-73
2023/01/20 04:40:01;;;;;;;8.93;4.80;;;8.90;99.90;;;;;;5015334;28;20045;-72
2023/01/20 04:42:28;;;;;;;7.40;4.35;;;8.80;99.90;;;;;;5012081;28;20049;-71
2023/01/20 04:44:55;;;;;;;5.43;4.47;;;8.80;99.90;;;;;;5029462;28;20113;-73
2023/01/20 04:47:24;;;;;;;6.32;4.72;;;9.10;99.90;;;;;;5010828;28;20489;-74
2023/01/20 04:49:51;;;;;;;6.80;4.30;;;9.10;99.90;;;;;;5017422;28;20047;-74
2023/01/20 04:52:21;;;;;;;7.05;3.90;;;9.00;99.90;;;;;;5052991;28;20133;-73
2023/01/20 04:54:48;;;;;;;5.60;4.30;;;8.90;99.90;;;;;;5034644;28;20415;-73
2023/01/20 04:57:15;;;;;;;7.72;4.60;;;8.80;99.90;;;;;;5019939;28;20394;-72
2023/01/20 04:59:43;;;;;;;7.05;4.10;;;8.90;99.90;;;;;;5027769;28;20500;-73
2023/01/20 05:02:10;;;;;;;7.82;4.88;;;9.10;99.90;;;;;;5008904;28;20140;-72
2023/01/20 05:04:38;;;;;;;6.63;3.97;;;9.30;99.90;;;;;;5011889;28;20049;-72
2023/01/20 05:07:05;;;;;;;6.82;4.38;;;9.60;99.90;;;;;;5025986;28;20052;-74
2023/01/20 05:09:34;;;;;;;10.15;4.30;;;9.60;99.90;;;;;;5034732;28;20124;-73
2023/01/20 05:12:04;;;;;;;8.95;4.07;;;9.70;99.90;;;;;;5018385;28;20042;-73
2023/01/20 05:14:31;;;;;;;7.57;4.20;;;9.60;99.90;;;;;;5011364;28;20054;-72
2023/01/20 05:16:59;;;;;;;8.68;4.32;;;9.70;99.90;;;;;;5021324;28;20547;-72
2023/01/20 05:19:26;;;;;;;6.00;4.20;;;9.80;99.90;;;;;;4999966;28;20408;-72
2023/01/20 05:21:53;;;;;;;8.13;3.92;;;9.70;99.90;;;;;;5025823;28;20046;-74
2023/01/20 05:24:23;;;;;;;6.88;3.90;;;9.80;99.90;;;;;;5010985;28;20065;-74
2023/01/20 05:26:57;;;;;;;7.90;4.70;;;9.80;99.90;;;;;;5026491;28;20051;-74
2023/01/20 05:29:28;;;;;;;11.18;5.43;;;9.80;99.90;;;;;;5029374;28;20049;-74
2023/01/20 05:31:55;;;;;;;10.48;7.63;;;9.80;99.90;;;;;;5025179;28;20041;-72
2023/01/20 05:34:22;;;;;;;11.38;6.70;;;9.80;99.90;;;;;;5002227;28;20506;-74
2023/01/20 05:36:52;;;;;;;12.48;7.05;;;9.80;99.90;;;;;;5011450;28;20562;-73
2023/01/20 05:39:21;;;;;;;13.02;7.38;;;9.90;99.90;;;;;;5043949;28;20044;-72
2023/01/20 05:41:49;;;;;;;14.90;7.73;;;9.90;99.90;;;;;;5026926;28;20052;-71
2023/01/20 05:44:17;;;;;;;11.18;6.97;;;9.80;99.90;;;;;;5020506;28;20638;-72
2023/01/20 05:46:44;;;;;;;14.15;7.85;;;9.70;99.90;;;;;;5000729;28;20049;-70
2023/01/20 05:49:18;;;;;;;12.75;7.82;;;9.80;99.90;;;;;;5022509;28;20051;-73
2023/01/20 05:51:45;;;;;;;11.18;6.93;;;9.80;99.90;;;;;;5011061;28;20194;-72
2023/01/20 05:54:16;;;;;;;13.00;6.95;;;9.90;99.90;;;;;;5009461;28;20053;-73
2023/01/20 05:56:47;;;;;;;10.52;7.03;;;9.80;99.90;;;;;;5021933;28;20050;-74
2023/01/20 05:59:16;;;;;;;7.57;6.18;;;9.90;99.90;;;;;;5027634;28;21003;-74
2023/01/20 06:01:46;;;;;;;6.70;5.43;;;9.90;99.90;;;;;;5010819;28;20375;-75
2023/01/20 06:04:19;;;;;;;10.05;4.90;;;9.80;99.90;;;;;;5027333;28;20444;-73
2023/01/20 06:06:51;;;;;;;5.30;4.25;;;9.80;99.90;;;;;;5010956;28;20089;-73
2023/01/20 06:09:18;;;;;;;5.88;4.13;;;9.80;99.90;;;;;;5016737;28;20044;-76
2023/01/20 06:11:52;;;;;;;61.28;34.55;;;9.70;99.90;;;;;;5038646;28;20057;-76
2023/01/20 06:14:25;;;;;;;112.18;60.40;;;9.90;99.90;;;;;;5011043;28;20457;-75
2023/01/20 06:16:56;;;;;;;19.00;13.10;;;10.10;99.90;;;;;;4996082;28;20056;-76
2023/01/20 06:19:26;;;;;;;10.43;6.55;;;9.90;99.90;;;;;;5007568;28;20038;-75
2023/01/20 06:21:53;;;;;;;7.20;5.30;;;9.80;99.90;;;;;;5013910;28;20042;-71
2023/01/20 06:24:20;;;;;;;8.45;4.68;;;9.50;99.90;;;;;;5009104;28;20506;-75
2023/01/20 06:26:50;;;;;;;9.75;4.95;;;9.40;99.90;;;;;;5013227;28;20048;-75
2023/01/20 06:29:21;;;;;;;7.22;4.85;;;9.40;99.90;;;;;;5005086;28;20050;-73
2023/01/20 06:31:53;;;;;;;7.68;4.82;;;9.30;99.90;;;;;;5031666;28;20053;-76
2023/01/20 06:34:21;;;;;;;5.63;4.60;;;9.50;99.90;;;;;;5044364;28;20044;-76
2023/01/20 06:36:57;;;;;;;6.90;4.72;;;9.70;99.90;;;;;;5014784;28;20096;-73
2023/01/20 06:39:34;;;;;;;7.43;4.32;;;9.80;99.90;;;;;;5028425;28;20457;-74
2023/01/20 06:42:13;;;;;;;7.43;4.90;;;9.90;99.90;;;;;;5026048;28;20654;-76
2023/01/20 06:44:55;;;;;;;6.70;4.78;;;9.90;99.90;;;;;;5015972;28;20132;-79
2023/01/20 06:47:27;;;;;;;7.85;4.72;;;9.80;99.90;;;;;;5014180;28;20046;-73
2023/01/20 06:49:55;;;;;;;7.82;4.60;;;9.90;99.90;;;;;;5017848;28;20049;-72
2023/01/20 06:52:29;;;;;;;9.43;6.35;;;9.60;99.90;;;;;;5031192;28;20360;-74
2023/01/20 06:55:05;;;;;;;14.20;6.50;;;9.60;99.90;;;;;;5028648;28;20045;-78
2023/01/20 06:57:32;;;;;;;10.25;7.32;;;9.30;99.90;;;;;;5017464;28;20048;-78
2023/01/20 06:59:59;;;;;;;10.88;6.75;;;9.20;99.90;;;;;;5022416;28;20061;-74
2023/01/20 07:02:27;;;;;;;14.48;7.60;;;9.20;99.90;;;;;;5015832;28;20053;-74
2023/01/20 07:04:58;;;;;;;12.30;8.13;;;9.30;99.90;;;;;;5013128;28;20144;-77
2023/01/20 07:07:26;;;;;;;11.05;8.00;;;9.30;99.90;;;;;;5025502;28;20287;-75
2023/01/20 07:09:56;;;;;;;14.98;8.95;;;9.40;99.90;;;;;;5016146;28;20436;-77
2023/01/20 07:12:24;;;;;;;12.38;8.13;;;9.50;99.90;;;;;;5018880;23;20034;-79
2023/01/20 07:14:57;;;;;;;13.25;8.90;;;9.60;99.90;;;;;;4998298;28;20048;-72
2023/01/20 07:17:24;;;;;;;13.68;8.93;;;9.70;99.90;;;;;;4994696;28;20042;-77
2023/01/20 07:19:53;;;;;;;12.18;9.07;;;9.70;99.90;;;;;;4991050;28;20046;-75
2023/01/20 07:22:23;;;;;;;13.90;8.75;;;9.60;99.90;;;;;;4994543;28;20050;-73
2023/01/20 07:24:53;;;;;;;14.82;9.30;;;9.70;99.90;;;;;;4992564;28;20057;-79
2023/01/20 07:27:21;;;;;;;15.73;9.57;;;9.80;99.90;;;;;;5022498;28;20046;-79
2023/01/20 07:29:48;;;;;;;14.90;9.18;;;9.80;99.90;;;;;;5034210;28;20046;-73
2023/01/20 07:32:20;;;;;;;16.45;9.18;;;9.80;99.90;;;;;;4994988;28;20054;-77
2023/01/20 07:34:57;;;;;;;15.98;9.68;;;9.90;99.90;;;;;;4992162;28;20086;-73
2023/01/20 07:37:39;;;;;;;16.13;9.52;;;9.90;99.90;;;;;;4995073;28;20082;-77
2023/01/20 07:40:11;;;;;;;13.10;9.32;;;9.80;99.90;;;;;;5013647;28;20379;-73
2023/01/20 07:42:41;;;;;;;13.93;8.90;;;9.60;99.90;;;;;;4993657;28;20141;-77
2023/01/20 07:45:10;;;;;;;12.30;9.10;;;9.40;99.90;;;;;;4993067;28;20430;-77
2023/01/20 07:47:44;;;;;;;16.40;9.57;;;9.10;99.90;;;;;;5002669;28;20053;-72
2023/01/20 07:50:13;;;;;;;16.23;10.68;;;9.10;99.90;;;;;;4993926;28;20124;-76
2023/01/20 07:52:47;;;;;;;13.15;9.27;;;9.00;99.90;;;;;;5010918;28;20042;-74
2023/01/20 07:55:24;;;;;;;15.10;9.30;;;9.10;99.90;;;;;;4993521;28;20046;-75
2023/01/20 07:57:52;;;;;;;15.52;9.63;;;9.20;99.90;;;;;;4991952;28;20138;-76
2023/01/20 08:00:23;;;;;;;16.70;8.95;;;9.30;99.90;;;;;;5003294;28;20045;-79
2023/01/20 08:02:59;;;;;;;16.90;10.15;;;9.20;99.90;;;;;;5015465;28;20417;-77
2023/01/20 08:05:31;;;;;;;16.85;9.43;;;9.20;99.90;;;;;;4994470;28;20050;-77
2023/01/20 08:08:08;;;;;;;13.40;8.43;;;9.40;99.90;;;;;;5011527;28;20437;-74
2023/01/20 08:10:46;;;;;;;15.25;8.73;;;9.30;99.90;;;;;;5011870;28;20041;-77
2023/01/20 08:13:43;;;;;;;11.57;7.90;;;9.60;99.90;;;;;;5019722;28;20045;-73
2023/01/20 08:16:16;;;;;;;13.05;7.05;;;9.80;99.90;;;;;;5034593;28;20047;-76
2023/01/20 08:18:46;;;;;;;10.40;6.93;;;9.70;99.90;;;;;;5018574;28;20050;-74
2023/01/20 08:21:20;;;;;;;8.43;6.43;;;9.50;99.90;;;;;;4994428;28;20045;-75
2023/01/20 08:23:47;;;;;;;13.05;8.48;;;9.60;99.90;;;;;;4992651;28;20041;-78
2023/01/20 08:26:15;;;;;;;12.45;7.38;;;9.50;99.90;;;;;;4991901;28;20038;-76
2023/01/20 08:28:42;;;;;;;10.48;7.80;;;9.70;99.90;;;;;;4991293;28;20058;-71
2023/01/20 08:31:15;;;;;;;11.35;8.20;;;9.80;99.90;;;;;;4994122;28;20038;-76
2023/01/20 08:33:44;;;;;;;13.45;8.57;;;10.00;99.90;;;;;;4994051;28;20057;-75
2023/01/20 08:36:15;;;;;;;13.95;8.32;;;10.30;99.90;;;;;;5007245;23;20046;-71
2023/01/20 08:38:44;;;;;;;12.90;8.43;;;10.40;99.90;;;;;;5024064;28;20081;-74
2023/01/20 08:41:17;;;;;;;10.60;8.05;;;10.40;99.90;;;;;;5012103;28;20029;-71
2023/01/20 08:43:45;;;;;;;19.02;10.98;;;10.40;99.90;;;;;;5008675;28;20044;-71
2023/01/20 08:46:16;;;;;;;19.58;12.02;;;10.50;99.90;;;;;;5004724;28;20084;-73
2023/01/20 08:48:48;;;;;;;14.65;9.43;;;10.50;99.90;;;;;;5013274;28;20081;-78
2023/01/20 08:51:22;;;;;;;12.05;9.18;;;10.60;99.90;;;;;;5018287;28;20037;-72
2023/01/20 08:53:52;;;;;;;14.63;8.95;;;10.70;99.90;;;;;;5003106;28;20050;-73
2023/01/20 08:56:22;;;;;;;13.75;10.43;;;10.50;99.90;;;;;;5011989;28;20469;-76
2023/01/20 08:59:02;;;;;;;12.93;9.23;;;10.30;99.90;;;;;;5013359;28;20053;-70
2023/01/20 09:01:35;;;;;;;13.65;9.00;;;10.40;99.90;;;;;;5003815;28;20042;-72
2023/01/20 09:04:04;;;;;;;12.95;9.55;;;10.30;99.90;;;;;;5012488;28;20050;-72
2023/01/20 09:06:54;;;;;;;11.32;8.18;;;10.50;99.90;;;;;;5030762;22;20041;-71
2023/01/20 09:09:22;;;;;;;12.00;8.07;;;10.50;99.90;;;;;;5008025;28;20053;-73
2023/01/20 09:11:49;;;;;;;18.17;7.65;;;10.60;99.90;;;;;;5017500;28;20061;-74
2023/01/20 09:14:22;;;;;;;12.88;8.15;;;10.70;99.90;;;;;;4999493;28;20042;-74
2023/01/20 09:16:50;;;;;;;10.63;7.15;;;10.90;99.90;;;;;;4989176;28;20046;-72
2023/01/20 09:19:17;;;;;;;9.43;7.15;;;11.10;99.90;;;;;;4986363;28;20153;-76
2023/01/20 09:21:53;;;;;;;11.55;7.82;;;11.20;99.90;;;;;;5008071;28;20401;-75
2023/01/20 09:24:20;;;;;;;8.88;6.20;;;11.10;99.90;;;;;;5001206;28;20042;-72
2023/01/20 09:26:52;;;;;;;8.43;6.38;;;11.10;99.90;;;;;;4991774;28;20365;-74
2023/01/20 09:29:20;;;;;;;8.77;6.15;;;11.10;99.90;;;;;;4988586;28;20058;-75
2023/01/20 09:32:00;;;;;;;8.82;6.53;;;11.20;99.90;;;;;;5005786;23;20054;-72
2023/01/20 09:34:29;;;;;;;10.25;6.78;;;10.90;99.90;;;;;;4991802;28;20037;-76
2023/01/20 09:43:52;;;;;;;8.68;6.35;;;11.00;99.90;;;;;;5010661;28;20034;-76
2023/01/20 09:46:22;;;;;;;9.73;7.35;;;11.30;99.90;;;;;;5025686;28;20056;-72
2023/01/20 09:55:09;;;;;;;9.73;6.95;;;11.10;99.90;;;;;;5010127;28;20050;-73
2023/01/20 09:57:41;;;;;;;8.90;6.57;;;10.90;99.90;;;;;;4995123;28;20100;-75
2023/01/20 10:00:20;;;;;;;10.77;7.32;;;11.00;99.90;;;;;;4991445;28;20066;-72
2023/01/20 10:03:16;;;;;;;10.00;6.63;;;11.10;99.90;;;;;;4996974;28;20050;-73
2023/01/20 10:05:46;;;;;;;10.13;6.72;;;11.00;99.90;;;;;;4994714;28;20046;-73
2023/01/20 10:08:28;;;;;;;9.27;6.15;;;11.20;99.90;;;;;;4995092;28;20052;-73
2023/01/20 10:11:05;;;;;;;12.55;6.38;;;11.40;99.90;;;;;;4995120;28;20101;-73
2023/01/20 10:13:46;;;;;;;10.38;6.30;;;11.20;99.90;;;;;;4997977;28;20042;-72
2023/01/20 10:16:30;;;;;;;9.02;5.63;;;11.40;99.90;;;;;;4997232;28;20520;-74
2023/01/20 10:19:12;;;;;;;8.00;5.93;;;11.30;99.90;;;;;;4995902;28;20072;-73
2023/01/20 10:21:51;;;;;;;7.82;6.07;;;11.50;99.90;;;;;;4993456;28;20039;-73
2023/01/20 10:24:36;;;;;;;8.52;6.15;;;11.80;99.90;;;;;;4988282;28;20437;-75
2023/01/20 10:27:07;;;;;;;8.35;5.90;;;12.10;99.90;;;;;;4996011;28;20430;-72
2023/01/20 10:29:48;;;;;;;10.68;5.47;;;12.40;99.90;;;;;;4993165;28;20100;-74
2023/01/20 10:32:37;;;;;;;10.02;5.18;;;12.50;99.90;;;;;;4991372;28;20049;-76
2023/01/20 10:35:23;;;;;;;7.88;4.57;;;12.80;99.90;;;;;;4994047;28;20112;-71
2023/01/20 10:37:59;;;;;;;6.78;4.50;;;12.80;99.90;;;;;;4992935;28;20141;-72
2023/01/20 10:40:49;;;;;;;8.50;5.15;;;12.80;99.90;;;;;;4992242;28;20046;-73
2023/01/20 10:43:20;;;;;;;8.30;4.78;;;13.00;99.90;;;;;;5006857;28;20042;-74
2023/01/20 10:46:20;;;;;;;6.50;4.57;;;13.00;99.90;;;;;;4991527;28;20050;-71
2023/01/20 10:48:57;;;;;;;7.47;4.63;;;13.10;99.90;;;;;;5014450;28;20046;-75
2023/01/20 10:51:52;;;;;;;6.88;4.47;;;13.30;99.90;;;;;;5002533;28;20477;-71
2023/01/20 10:54:40;;;;;;;12.05;6.78;;;13.30;99.90;;;;;;4992203;28;20045;-75
2023/01/20 10:57:13;;;;;;;7.05;4.40;;;13.60;99.90;;;;;;5005942;28;20132;-72
2023/01/20 10:59:52;;;;;;;10.32;3.90;;;14.00;99.90;;;;;;4990021;28;20444;-73
2023/01/20 11:02:28;;;;;;;5.07;3.65;;;14.30;99.90;;;;;;4996023;28;20042;-75
2023/01/20 11:05:01;;;;;;;6.20;3.53;;;14.30;99.90;;;;;;5010595;28;20069;-74
2023/01/20 11:07:32;;;;;;;5.32;3.35;;;14.30;99.90;;;;;;4993559;28;20409;-73
2023/01/20 11:10:24;;;;;;;9.18;3.08;;;14.10;99.90;;;;;;5004067;28;20065;-72
2023/01/20 11:12:58;;;;;;;6.55;2.83;;;14.50;99.90;;;;;;4985631;28;20046;-74
2023/01/20 11:15:32;;;;;;;5.30;3.30;;;14.80;99.90;;;;;;4991171;28;20540;-71
2023/01/20 11:18:26;;;;;;;7.00;3.22;;;14.90;99.90;;;;;;4994397;28;20042;-74
2023/01/20 11:21:02;;;;;;;3.95;2.65;;;14.60;99.90;;;;;;4994638;28;20046;-71
2023/01/20 11:23:56;;;;;;;12.25;5.00;;;14.50;99.90;;;;;;4990698;28;20038;-74
2023/01/20 11:26:35;;;;;;;5.47;3.05;;;14.50;99.90;;;;;;5010682;28;20045;-72
2023/01/20 11:29:09;;;;;;;5.78;3.40;;;14.50;99.80;;;;;;5000781;28;20124;-72
2023/01/20 11:31:58;;;;;;;4.93;2.40;;;15.20;98.60;;;;;;5009425;28;20054;-70
2023/01/20 11:34:31;;;;;;;5.43;2.88;;;15.70;97.40;;;;;;4991820;28;20044;-70
2023/01/20 11:37:05;;;;;;;4.97;2.45;;;16.40;96.30;;;;;;5017890;23;20038;-73
2023/01/20 11:39:35;;;;;;;3.42;2.22;;;16.50;95.00;;;;;;5008802;28;20574;-72
2023/01/20 11:42:27;;;;;;;5.47;2.30;;;16.40;93.70;;;;;;5022476;28;20054;-70
2023/01/20 11:44:58;;;;;;;4.80;2.35;;;16.00;91.70;;;;;;5004959;28;20408;-72
2023/01/20 11:47:57;;;;;;;3.90;2.47;;;15.60;92.90;;;;;;5008947;28;20046;-71
2023/01/20 11:50:49;;;;;;;5.60;2.70;;;15.00;95.40;;;;;;5008952;28;20504;-70
2023/01/20 11:53:23;;;;;;;4.82;2.72;;;14.20;99.40;;;;;;5001754;28;20056;-71
2023/01/20 11:56:01;;;;;;;5.73;3.17;;;13.90;99.90;;;;;;5016662;28;20046;-74
2023/01/20 11:58:46;;;;;;;3.92;2.72;;;13.80;99.90;;;;;;5011323;28;20037;-73
2023/01/20 12:01:24;;;;;;;5.28;3.30;;;13.40;99.90;;;;;;5012295;28;20050;-75
2023/01/20 12:04:14;;;;;;;17.42;8.40;;;13.00;99.90;;;;;;5015941;28;20049;-72
2023/01/20 12:07:48;;;;;;;18.50;9.57;;;12.80;99.90;;;;;;5001194;28;20053;-71
2023/01/20 12:10:29;;;;;;;5.03;3.53;;;12.90;99.90;;;;;;4983033;28;20449;-71
2023/01/20 12:13:21;;;;;;;14.80;4.97;;;12.80;99.90;;;;;;5013607;28;20478;-74
2023/01/20 12:15:57;;;;;;;8.02;4.43;;;12.70;99.90;;;;;;4998384;28;20038;-70
2023/01/20 12:18:39;;;;;;;3.75;2.83;;;12.90;99.90;;;;;;5007965;28;20052;-70
2023/01/20 12:21:47;;;;;;;4.78;2.47;;;13.30;99.90;;;;;;4989871;28;20058;-71
2023/01/20 12:25:06;;;;;;;5.07;3.35;;;13.50;99.90;;;;;;5004570;28;20383;-70
2023/01/20 12:27:29;;;;;;;3.72;2.55;;;13.70;99.90;;;;;;5007166;28;20043;-72
2023/01/20 12:30:02;;;;;;;3.17;2.50;;;13.40;99.90;;;;;;4999212;28;20394;-75
2023/01/20 12:32:32;;;;;;;4.05;2.50;;;13.10;99.90;;;;;;4998443;28;20046;-72
2023/01/20 12:35:14;;;;;;;3.72;2.58;;;12.90;99.90;;;;;;4994566;28;20042;-72
2023/01/20 12:37:50;;;;;;;4.20;2.88;;;12.70;99.90;;;;;;5000424;28;20061;-74
2023/01/20 12:40:51;;;;;;;4.38;2.83;;;12.80;99.90;;;;;;4989662;28;20173;-72
2023/01/20 12:43:39;;;;;;;8.95;3.05;;;12.70;99.90;;;;;;4983847;28;20096;-74
2023/01/20 12:46:29;;;;;;;7.15;3.00;;;12.80;99.90;;;;;;4991095;28;20054;-76
2023/01/20 12:49:15;;;;;;;4.72;3.00;;;12.90;99.90;;;;;;5006037;28;20064;-75
2023/01/20 12:51:49;;;;;;;4.80;3.08;;;12.80;99.90;;;;;;4991990;28;20050;-78
2023/01/20 12:54:53;;;;;;;4.80;2.65;;;12.80;99.90;;;;;;4996419;28;20105;-74
2023/01/20 12:57:46;;;;;;;30.35;4.28;;;13.10;99.90;;;;;;5014178;28;20130;-73
2023/01/20 13:00:45;;;;;;;5.55;2.30;;;15.00;99.90;;;;;;4984457;28;20371;-74
2023/01/20 13:03:30;;;;;;;6.57;2.47;;;17.20;90.70;;;;;;4990577;28;20041;-69
2023/01/20 13:05:59;;;;;;;9.27;2.45;;;14.70;95.90;;;;;;4995548;28;20045;-69
2023/01/20 13:09:06;;;;;;;3.70;2.60;;;13.70;99.90;;;;;;5001742;28;20088;-73
2023/01/20 13:12:11;;;;;;;5.82;2.90;;;13.40;99.90;;;;;;4988635;28;20049;-74
2023/01/20 13:14:44;;;;;;;5.07;3.25;;;14.60;99.40;;;;;;5007558;28;20046;-74
2023/01/20 13:17:24;;;;;;;5.30;2.40;;;16.20;96.40;;;;;;5014515;28;20053;-79
2023/01/20 13:19:56;;;;;;;3.55;2.00;;;17.60;90.10;;;;;;4984873;28;20049;-69
2023/01/20 13:22:24;;;;;;;4.28;1.90;;;19.90;79.40;;;;;;5011660;28;20049;-74
2023/01/20 13:24:55;;;;;;;3.85;1.85;;;19.60;75.00;;;;;;5011648;28;20132;-76
2023/01/20 13:27:33;;;;;;;3.80;2.03;;;16.60;81.80;;;;;;5000367;28;20042;-71
2023/01/20 13:30:03;;;;;;;4.97;2.08;;;15.30;90.90;;;;;;4992270;28;20046;-70
2023/01/20 13:32:41;;;;;;;6.53;2.40;;;15.30;91.30;;;;;;4994565;28;20384;-79
2023/01/20 13:35:14;;;;;;;4.68;2.45;;;13.80;93.80;;;;;;5011395;28;20049;-75
2023/01/20 13:37:54;;;;;;;5.28;2.75;;;13.40;96.10;;;;;;4994613;28;20053;-74
2023/01/20 13:40:46;;;;;;;4.38;2.67;;;13.20;97.60;;;;;;4984684;28;20044;-78